createdAt,value
2023-02-06T00:00:41.230Z,27.14
2023-02-06T00:01:43.036Z,29.65
2023-02-06T00:02:44.877Z,34.21
2023-02-06T00:03:46.662Z,30.61
2023-02-06T00:04:48.468Z,28.37
2023-02-06T00:05:50.317Z,29.01
2023-02-06T00:06:52.079Z,30.61
2023-02-06T00:07:53.871Z,30.45
2023-02-06T00:08:55.668Z,32.57
2023-02-06T00:09:57.813Z,28.28
2023-02-06T00:10:59.924Z,28.74
2023-02-06T00:12:01.716Z,28.87
2023-02-06T00:13:05.822Z,29.70
2023-02-06T00:14:07.869Z,31.04
2023-02-06T00:15:10.048Z,27.77
2023-02-06T00:16:12.675Z,27.22
2023-02-06T00:17:15.736Z,29.36
2023-02-06T00:18:17.583Z,29.65
2023-02-06T00:19:20.680Z,28.29
2023-02-06T00:20:22.855Z,30.96
2023-02-06T00:21:24.690Z,29.54
2023-02-06T00:22:26.445Z,29.63
2023-02-06T00:23:28.246Z,28.33
2023-02-06T00:24:31.260Z,28.10
2023-02-06T00:25:33.949Z,29.21
2023-02-06T00:26:36.041Z,31.86
2023-02-06T00:27:37.840Z,32.87
2023-02-06T00:28:39.654Z,30.57
2023-02-06T00:29:42.545Z,30.29
2023-02-06T00:30:44.441Z,28.19
2023-02-06T00:31:46.812Z,30.11
2023-02-06T00:32:48.691Z,28.54
2023-02-06T00:33:51.603Z,31.13
2023-02-06T00:34:53.417Z,30.65
2023-02-06T00:35:55.262Z,27.74
2023-02-06T00:36:57.067Z,30.74
2023-02-06T00:37:58.873Z,31.45
2023-02-06T00:39:00.710Z,29.31
2023-02-06T00:40:02.496Z,30.17
2023-02-06T00:41:04.338Z,32.88
2023-02-06T00:42:06.131Z,30.35
2023-02-06T00:43:07.937Z,29.46
2023-02-06T00:44:09.744Z,31.08
2023-02-06T00:45:11.539Z,31.17
2023-02-06T00:46:14.472Z,29.44
2023-02-06T00:47:16.293Z,30.16
2023-02-06T00:48:18.110Z,30.06
2023-02-06T00:49:19.903Z,31.06
2023-02-06T00:50:21.703Z,31.12
2023-02-06T00:51:23.578Z,30.19
2023-02-06T00:52:25.393Z,28.73
2023-02-06T00:53:27.198Z,29.87
2023-02-06T00:54:29.000Z,29.68
2023-02-06T00:55:30.808Z,26.58
2023-02-06T00:56:32.640Z,29.76
2023-02-06T00:57:34.462Z,29.23
2023-02-06T00:58:36.245Z,29.88
2023-02-06T00:59:38.062Z,29.29
2023-02-06T01:00:39.842Z,29.75
2023-02-06T01:01:41.713Z,28.03
2023-02-06T01:02:43.584Z,30.03
2023-02-06T01:03:45.337Z,29.93
2023-02-06T01:04:47.142Z,30.18
2023-02-06T01:05:48.932Z,28.85
2023-02-06T01:06:50.985Z,28.95
2023-02-06T01:07:52.778Z,28.46
2023-02-06T01:08:54.581Z,28.09
2023-02-06T01:09:56.372Z,26.75
2023-02-06T01:10:58.274Z,29.40
2023-02-06T01:12:00.125Z,27.61
2023-02-06T01:13:01.923Z,29.03
2023-02-06T01:14:03.721Z,28.13
2023-02-06T01:15:05.562Z,31.62
2023-02-06T01:16:07.710Z,27.33
2023-02-06T01:17:09.524Z,30.27
2023-02-06T01:18:11.400Z,29.20
2023-02-06T01:19:13.213Z,27.99
2023-02-06T01:20:15.297Z,28.31
2023-02-06T01:21:17.106Z,28.17
2023-02-06T01:22:18.941Z,28.45
2023-02-06T01:23:20.733Z,28.45
2023-02-06T01:24:22.636Z,27.95
2023-02-06T01:25:24.419Z,28.69
2023-02-06T01:26:26.224Z,27.74
2023-02-06T01:27:28.080Z,29.39
2023-02-06T01:28:29.869Z,29.26
2023-02-06T01:29:31.665Z,27.03
2023-02-06T01:30:33.634Z,30.23
2023-02-06T01:31:35.494Z,29.31
2023-02-06T01:32:37.323Z,27.76
2023-02-06T01:33:39.112Z,30.33
2023-02-06T01:34:40.921Z,28.37
2023-02-06T01:35:42.713Z,29.04
2023-02-06T01:36:44.518Z,29.72
2023-02-06T01:37:46.360Z,25.86
2023-02-06T01:38:48.164Z,28.19
2023-02-06T01:39:49.951Z,26.80
2023-02-06T01:40:51.861Z,28.57
2023-02-06T01:41:53.661Z,28.56
2023-02-06T01:42:55.484Z,29.97
2023-02-06T01:43:57.295Z,30.25
2023-02-06T01:44:59.113Z,28.53
2023-02-06T01:46:03.223Z,27.49
2023-02-06T01:47:05.044Z,28.48
2023-02-06T01:48:06.888Z,27.62
2023-02-06T01:49:08.700Z,28.25
2023-02-06T01:50:11.101Z,29.33
2023-02-06T01:51:12.902Z,26.68
2023-02-06T01:52:14.722Z,28.68
2023-02-06T01:53:16.545Z,28.73
2023-02-06T01:54:18.360Z,27.52
2023-02-06T01:55:20.173Z,30.51
2023-02-06T01:56:21.954Z,26.53
2023-02-06T01:57:23.749Z,27.49
2023-02-06T01:58:25.603Z,31.33
2023-02-06T01:59:27.397Z,28.54
2023-02-06T02:00:29.325Z,27.65
2023-02-06T02:01:31.099Z,29.41
2023-02-06T02:02:32.892Z,29.82
2023-02-06T02:03:34.727Z,30.26
2023-02-06T02:04:36.546Z,31.39
2023-02-06T02:05:38.508Z,30.19
2023-02-06T02:06:40.533Z,28.70
2023-02-06T02:07:42.331Z,28.03
2023-02-06T02:08:44.177Z,29.33
2023-02-06T02:09:45.980Z,29.34
2023-02-06T02:10:48.184Z,29.23
2023-02-06T02:11:49.997Z,30.32
2023-02-06T02:12:51.788Z,29.60
2023-02-06T02:13:53.672Z,30.13
2023-02-06T02:14:55.423Z,35.93
2023-02-06T02:15:57.252Z,30.81
2023-02-06T02:16:59.136Z,32.06
2023-02-06T02:18:00.937Z,31.86
2023-02-06T02:19:02.776Z,33.93
2023-02-06T02:20:04.694Z,31.03
2023-02-06T02:21:06.499Z,30.24
2023-02-06T02:22:08.286Z,29.11
2023-02-06T02:23:10.085Z,28.61
2023-02-06T02:24:11.909Z,26.41
2023-02-06T02:25:13.737Z,28.11
2023-02-06T02:26:15.653Z,30.62
2023-02-06T02:27:17.446Z,26.17
2023-02-06T02:28:19.320Z,25.69
2023-02-06T02:29:21.217Z,25.48
2023-02-06T02:30:23.044Z,28.90
2023-02-06T02:31:24.877Z,29.93
2023-02-06T02:32:26.628Z,31.71
2023-02-06T02:33:28.424Z,32.78
2023-02-06T02:34:30.295Z,35.83
2023-02-06T02:35:32.095Z,33.74
2023-02-06T02:36:33.973Z,38.51
2023-02-06T02:37:35.779Z,37.61
2023-02-06T02:38:37.606Z,30.49
2023-02-06T02:39:39.426Z,30.27
2023-02-06T02:40:41.329Z,26.77
2023-02-06T02:41:43.127Z,26.04
2023-02-06T02:42:44.926Z,26.69
2023-02-06T02:43:46.731Z,29.95
2023-02-06T02:44:48.567Z,34.02
2023-02-06T02:45:50.417Z,37.67
2023-02-06T02:46:52.263Z,41.30
2023-02-06T02:47:54.058Z,33.44
2023-02-06T02:48:55.860Z,30.02
2023-02-06T02:49:57.809Z,33.01
2023-02-06T02:50:59.713Z,33.44
2023-02-06T02:52:01.551Z,33.45
2023-02-06T02:53:03.345Z,35.04
2023-02-06T02:54:05.138Z,32.24
2023-02-06T02:55:06.990Z,29.54
2023-02-06T02:56:08.902Z,31.33
2023-02-06T02:57:10.710Z,32.51
2023-02-06T02:58:12.511Z,33.36
2023-02-06T02:59:14.305Z,36.65
2023-02-06T03:00:16.262Z,29.24
2023-02-06T03:01:18.080Z,30.54
2023-02-06T03:02:20.013Z,32.03
2023-02-06T03:03:21.864Z,29.92
2023-02-06T03:04:23.666Z,29.89
2023-02-06T03:05:25.513Z,31.65
2023-02-06T03:06:27.396Z,30.60
2023-02-06T03:07:29.189Z,27.51
2023-02-06T03:08:30.989Z,30.09
2023-02-06T03:09:32.795Z,28.14
2023-02-06T03:10:34.745Z,27.36
2023-02-06T03:11:36.557Z,27.37
2023-02-06T03:12:38.357Z,26.97
2023-02-06T03:13:40.163Z,26.18
2023-02-06T03:14:43.067Z,24.84
2023-02-06T03:15:44.921Z,28.43
2023-02-06T03:16:46.850Z,27.40
2023-02-06T03:17:48.631Z,26.53
2023-02-06T03:18:50.438Z,28.89
2023-02-06T03:19:52.239Z,26.44
2023-02-06T03:20:54.187Z,25.21
2023-02-06T03:21:56.004Z,27.93
2023-02-06T03:22:57.816Z,25.98
2023-02-06T03:23:59.603Z,29.77
2023-02-06T03:25:01.434Z,29.57
2023-02-06T03:26:03.247Z,26.25
2023-02-06T03:27:05.054Z,28.11
2023-02-06T03:28:06.897Z,28.30
2023-02-06T03:29:08.669Z,26.04
2023-02-06T03:30:11.081Z,29.48
2023-02-06T03:31:12.925Z,27.01
2023-02-06T03:32:14.728Z,29.91
2023-02-06T03:33:16.528Z,27.98
2023-02-06T03:34:18.354Z,31.27
2023-02-06T03:35:20.232Z,27.30
2023-02-06T03:36:22.792Z,30.73
2023-02-06T03:37:24.585Z,28.64
2023-02-06T03:38:26.380Z,33.78
2023-02-06T03:39:28.216Z,32.99
2023-02-06T03:40:30.308Z,29.47
2023-02-06T03:41:32.145Z,28.89
2023-02-06T03:42:33.941Z,31.59
2023-02-06T03:43:35.755Z,32.78
2023-02-06T03:44:37.562Z,27.90
2023-02-06T03:45:39.859Z,28.81
2023-02-06T03:46:41.927Z,29.98
2023-02-06T03:47:43.721Z,31.64
2023-02-06T03:48:45.521Z,33.35
2023-02-06T03:49:47.312Z,30.81
2023-02-06T03:50:49.224Z,31.88
2023-02-06T03:51:51.071Z,31.04
2023-02-06T03:52:52.867Z,29.33
2023-02-06T03:53:54.668Z,30.43
2023-02-06T03:54:56.477Z,31.13
2023-02-06T03:55:58.275Z,32.47
2023-02-06T03:57:00.249Z,31.89
2023-02-06T03:58:02.040Z,30.51
2023-02-06T03:59:03.854Z,31.19
2023-02-06T04:00:05.979Z,33.45
2023-02-06T04:01:07.788Z,31.50
2023-02-06T04:02:09.618Z,29.69
2023-02-06T04:03:11.405Z,29.76
2023-02-06T04:04:13.200Z,32.44
2023-02-06T04:05:17.245Z,30.41
2023-02-06T04:06:19.504Z,32.68
2023-02-06T04:07:21.355Z,33.16
2023-02-06T04:08:23.148Z,32.71
2023-02-06T04:09:24.953Z,31.77
2023-02-06T04:10:26.788Z,32.83
2023-02-06T04:11:28.578Z,32.34
2023-02-06T04:12:30.444Z,31.79
2023-02-06T04:13:32.235Z,35.89
2023-02-06T04:14:34.384Z,32.69
2023-02-06T04:15:36.579Z,35.40
2023-02-06T04:16:38.910Z,31.70
2023-02-06T04:17:57.432Z,32.02
2023-02-06T04:18:44.332Z,31.39
2023-02-06T04:19:46.147Z,36.51
2023-02-06T04:20:47.944Z,36.93
2023-02-06T04:21:49.748Z,34.56
2023-02-06T04:22:51.583Z,31.25
2023-02-06T04:23:54.509Z,33.38
2023-02-06T04:24:56.345Z,32.37
2023-02-06T04:25:58.151Z,33.75
2023-02-06T04:26:59.941Z,33.87
2023-02-06T04:28:01.862Z,33.35
2023-02-06T04:29:03.763Z,30.97
2023-02-06T04:30:05.673Z,34.39
2023-02-06T04:31:07.521Z,34.03
2023-02-06T04:32:09.360Z,32.11
2023-02-06T04:33:11.195Z,34.20
2023-02-06T04:34:13.017Z,36.23
2023-02-06T04:35:14.788Z,33.29
2023-02-06T04:36:17.207Z,36.17
2023-02-06T04:37:19.021Z,35.56
2023-02-06T04:38:20.932Z,30.47
2023-02-06T04:39:22.745Z,34.56
2023-02-06T04:40:24.639Z,50.37
2023-02-06T04:41:26.439Z,31.74
2023-02-06T04:42:28.259Z,30.93
2023-02-06T04:43:30.100Z,33.77
2023-02-06T04:44:31.913Z,33.47
2023-02-06T04:45:33.714Z,34.11
2023-02-06T04:46:35.602Z,31.39
2023-02-06T04:47:37.414Z,31.47
2023-02-06T04:48:39.246Z,33.33
2023-02-06T04:49:41.062Z,30.87
2023-02-06T04:50:42.856Z,31.56
2023-02-06T04:51:44.662Z,31.68
2023-02-06T04:52:46.473Z,31.05
2023-02-06T04:53:48.307Z,30.51
2023-02-06T04:54:50.107Z,31.13
2023-02-06T04:55:51.902Z,30.17
2023-02-06T04:56:53.726Z,31.44
2023-02-06T04:57:55.523Z,32.64
2023-02-06T04:58:57.369Z,33.47
2023-02-06T04:59:59.192Z,31.85
2023-02-06T05:01:01.170Z,32.37
2023-02-06T05:02:02.994Z,31.03
2023-02-06T05:03:04.770Z,31.21
2023-02-06T05:04:06.620Z,29.27
2023-02-06T05:05:08.427Z,29.79
2023-02-06T05:06:10.725Z,30.27
2023-02-06T05:07:12.523Z,27.93
2023-02-06T05:08:14.320Z,28.92
2023-02-06T05:09:16.225Z,31.55
2023-02-06T05:10:18.310Z,31.57
2023-02-06T05:11:20.102Z,31.08
2023-02-06T05:12:21.912Z,30.62
2023-02-06T05:13:23.714Z,30.36
2023-02-06T05:14:25.562Z,33.59
2023-02-06T05:15:27.422Z,34.78
2023-02-06T05:16:29.328Z,33.37
2023-02-06T05:17:31.136Z,27.66
2023-02-06T05:18:32.924Z,30.21
2023-02-06T05:19:34.776Z,29.49
2023-02-06T05:20:36.574Z,29.07
2023-02-06T05:21:38.370Z,30.55
2023-02-06T05:22:40.183Z,31.09
2023-02-06T05:23:41.976Z,30.26
2023-02-06T05:24:43.829Z,29.56
2023-02-06T05:25:45.629Z,27.59
2023-02-06T05:26:47.435Z,29.23
2023-02-06T05:27:49.296Z,34.51
2023-02-06T05:28:53.598Z,31.00
2023-02-06T05:29:55.475Z,31.32
2023-02-06T05:30:57.343Z,24.66
2023-02-06T05:31:59.203Z,27.81
2023-02-06T05:33:00.985Z,29.12
2023-02-06T05:34:02.826Z,27.73
2023-02-06T05:35:04.630Z,29.50
2023-02-06T05:36:06.538Z,28.43
2023-02-06T05:37:08.371Z,29.21
2023-02-06T05:38:10.169Z,24.61
2023-02-06T05:39:11.955Z,27.42
2023-02-06T05:40:13.890Z,26.92
2023-02-06T05:41:15.678Z,25.52
2023-02-06T05:42:17.484Z,25.69
2023-02-06T05:43:19.282Z,24.80
2023-02-06T05:44:21.075Z,29.29
2023-02-06T05:45:23.034Z,26.59
2023-02-06T05:46:24.913Z,25.73
2023-02-06T05:47:26.736Z,30.61
2023-02-06T05:48:28.525Z,29.61
2023-02-06T05:49:30.336Z,24.78
2023-02-06T05:50:32.471Z,28.75
2023-02-06T05:51:34.276Z,24.92
2023-02-06T05:52:36.067Z,26.22
2023-02-06T05:53:37.867Z,26.49
2023-02-06T05:54:39.666Z,29.13
2023-02-06T05:55:41.525Z,30.24
2023-02-06T05:56:43.441Z,22.19
2023-02-06T05:57:45.227Z,20.47
2023-02-06T05:58:47.028Z,25.94
2023-02-06T05:59:48.859Z,24.77
2023-02-06T06:00:50.778Z,24.65
2023-02-06T06:01:52.579Z,21.91
2023-02-06T06:02:54.386Z,24.21
2023-02-06T06:03:56.220Z,20.65
2023-02-06T06:04:58.126Z,20.88
2023-02-06T06:05:59.948Z,24.33
2023-02-06T06:07:01.745Z,21.24
2023-02-06T06:08:03.572Z,21.75
2023-02-06T06:09:05.382Z,22.27
2023-02-06T06:10:07.804Z,21.12
2023-02-06T06:11:09.653Z,20.70
2023-02-06T06:12:12.039Z,20.92
2023-02-06T06:13:13.839Z,21.41
2023-02-06T06:14:15.630Z,20.01
2023-02-06T06:15:17.434Z,21.07
2023-02-06T06:16:19.428Z,24.10
2023-02-06T06:17:21.297Z,24.86
2023-02-06T06:18:23.183Z,25.39
2023-02-06T06:19:24.993Z,20.47
2023-02-06T06:20:27.201Z,21.02
2023-02-06T06:21:29.038Z,22.05
2023-02-06T06:22:30.959Z,20.31
2023-02-06T06:23:32.721Z,20.87
2023-02-06T06:24:34.509Z,24.34
2023-02-06T06:25:36.654Z,25.32
2023-02-06T06:26:38.781Z,20.88
2023-02-06T06:27:40.571Z,24.40
2023-02-06T06:28:42.373Z,20.10
2023-02-06T06:29:44.180Z,22.87
2023-02-06T06:30:46.006Z,21.39
2023-02-06T06:31:47.946Z,23.82
2023-02-06T06:32:49.774Z,24.27
2023-02-06T06:33:51.593Z,22.10
2023-02-06T06:34:53.411Z,24.73
2023-02-06T06:35:55.206Z,22.72
2023-02-06T06:36:57.149Z,22.55
2023-02-06T06:37:58.967Z,24.97
2023-02-06T06:39:00.783Z,22.95
2023-02-06T06:40:02.634Z,23.56
2023-02-06T06:41:04.373Z,25.07
2023-02-06T06:42:06.237Z,27.38
2023-02-06T06:43:08.040Z,31.59
2023-02-06T06:44:09.832Z,35.64
2023-02-06T06:45:11.675Z,34.29
2023-02-06T06:46:13.794Z,36.42
2023-02-06T06:47:15.676Z,37.25
2023-02-06T06:48:17.447Z,36.06
2023-02-06T06:49:19.270Z,31.90
2023-02-06T06:50:21.159Z,30.70
2023-02-06T06:51:22.965Z,29.56
2023-02-06T06:52:25.840Z,36.89
2023-02-06T06:53:27.731Z,31.03
2023-02-06T06:54:29.626Z,33.07
2023-02-06T06:55:31.407Z,30.30
2023-02-06T06:56:33.219Z,46.61
2023-02-06T06:57:35.058Z,49.02
2023-02-06T06:58:36.873Z,33.75
2023-02-06T06:59:38.667Z,27.24
2023-02-06T07:00:40.688Z,29.11
2023-02-06T07:01:42.461Z,33.25
2023-02-06T07:02:44.427Z,35.31
2023-02-06T07:03:46.199Z,36.51
2023-02-06T07:04:47.959Z,34.45
2023-02-06T07:05:51.759Z,27.82
2023-02-06T07:06:53.382Z,29.04
2023-02-06T07:07:55.237Z,29.39
2023-02-06T07:08:57.044Z,27.00
2023-02-06T07:09:58.955Z,38.30
2023-02-06T07:11:00.843Z,35.20
2023-02-06T07:12:02.655Z,31.17
2023-02-06T07:13:04.518Z,36.93
2023-02-06T07:14:06.298Z,30.28
2023-02-06T07:15:08.104Z,51.61
2023-02-06T07:16:10.312Z,33.49
2023-02-06T07:17:12.050Z,31.66
2023-02-06T07:18:13.913Z,35.49
2023-02-06T07:19:15.712Z,33.47
2023-02-06T07:20:17.542Z,30.09
2023-02-06T07:21:19.354Z,28.24
2023-02-06T07:22:21.179Z,37.90
2023-02-06T07:23:23.024Z,29.19
2023-02-06T07:24:24.832Z,32.11
2023-02-06T07:25:26.665Z,26.65
2023-02-06T07:26:28.480Z,26.08
2023-02-06T07:27:30.285Z,33.40
2023-02-06T07:28:32.119Z,34.95
2023-02-06T07:29:33.981Z,29.86
2023-02-06T07:30:35.929Z,31.98
2023-02-06T07:31:37.746Z,31.16
2023-02-06T07:32:39.508Z,30.13
2023-02-06T07:33:41.362Z,33.72
2023-02-06T07:34:43.174Z,35.01
2023-02-06T07:35:45.541Z,33.08
2023-02-06T07:36:47.350Z,31.45
2023-02-06T07:37:49.144Z,32.25
2023-02-06T07:38:50.997Z,30.94
2023-02-06T07:39:52.803Z,33.16
2023-02-06T07:40:54.788Z,30.95
2023-02-06T07:41:56.585Z,36.44
2023-02-06T07:42:58.372Z,36.77
2023-02-06T07:44:00.262Z,41.04
2023-02-06T07:45:02.105Z,44.99
2023-02-06T07:46:03.960Z,39.10
2023-02-06T07:47:06.245Z,39.95
2023-02-06T07:48:08.677Z,41.54
2023-02-06T07:49:11.639Z,34.67
2023-02-06T07:50:13.963Z,34.90
2023-02-06T07:51:15.774Z,32.84
2023-02-06T07:52:17.578Z,29.13
2023-02-06T07:53:19.383Z,31.63
2023-02-06T07:54:21.253Z,30.45
2023-02-06T07:55:23.053Z,35.59
2023-02-06T07:56:25.351Z,30.93
2023-02-06T07:57:27.201Z,32.70
2023-02-06T07:58:28.998Z,34.25
2023-02-06T07:59:30.830Z,32.34
2023-02-06T08:00:32.655Z,32.48
2023-02-06T08:01:34.515Z,34.29
2023-02-06T08:02:36.360Z,33.51
2023-02-06T08:03:38.177Z,28.13
2023-02-06T08:04:40.079Z,34.94
2023-02-06T08:05:41.930Z,29.87
2023-02-06T08:06:43.715Z,30.71
2023-02-06T08:07:45.519Z,29.19
2023-02-06T08:08:47.342Z,32.16
2023-02-06T08:09:49.200Z,31.99
2023-02-06T08:10:51.013Z,33.46
2023-02-06T08:11:52.823Z,33.12
2023-02-06T08:12:54.624Z,33.75
2023-02-06T08:13:56.445Z,37.03
2023-02-06T08:14:58.297Z,34.79
2023-02-06T08:16:00.478Z,36.69
2023-02-06T08:17:02.359Z,33.76
2023-02-06T08:18:04.167Z,32.41
2023-02-06T08:19:05.961Z,32.95
2023-02-06T08:20:07.926Z,40.47
2023-02-06T08:21:09.725Z,37.54
2023-02-06T08:22:11.535Z,28.62
2023-02-06T08:23:13.333Z,30.39
2023-02-06T08:24:15.885Z,31.62
2023-02-06T08:25:17.748Z,29.37
2023-02-06T08:26:19.700Z,34.85
2023-02-06T08:27:21.508Z,33.44
2023-02-06T08:28:23.323Z,29.93
2023-02-06T08:29:26.302Z,33.47
2023-02-06T08:30:28.266Z,33.08
2023-02-06T08:31:30.742Z,32.55
2023-02-06T08:32:32.768Z,32.91
2023-02-06T08:33:34.573Z,42.54
2023-02-06T08:34:36.396Z,52.01
2023-02-06T08:35:38.293Z,31.64
2023-02-06T08:36:40.988Z,30.80
2023-02-06T08:37:43.660Z,29.22
2023-02-06T08:38:45.476Z,30.05
2023-02-06T08:39:47.369Z,26.45
2023-02-06T08:40:50.012Z,27.19
2023-02-06T08:41:51.864Z,27.20
2023-02-06T08:42:53.689Z,27.70
2023-02-06T08:43:55.500Z,27.90
2023-02-06T08:44:57.328Z,28.42
2023-02-06T08:45:59.208Z,30.25
2023-02-06T08:47:09.647Z,31.50
2023-02-06T08:48:05.207Z,33.18
2023-02-06T08:49:07.028Z,35.13
2023-02-06T08:50:09.126Z,32.51
2023-02-06T08:51:10.987Z,30.21
2023-02-06T08:52:12.790Z,28.49
2023-02-06T08:53:14.589Z,29.53
2023-02-06T08:54:16.741Z,29.51
2023-02-06T08:55:18.546Z,29.69
2023-02-06T08:56:20.498Z,28.35
2023-02-06T08:57:22.288Z,29.86
2023-02-06T08:58:24.127Z,32.28
2023-02-06T08:59:25.927Z,39.13
2023-02-06T09:00:27.826Z,32.24
2023-02-06T09:01:29.701Z,34.16
2023-02-06T09:02:31.503Z,31.73
2023-02-06T09:03:33.443Z,32.20
2023-02-06T09:04:35.248Z,33.37
2023-02-06T09:05:37.307Z,30.39
2023-02-06T09:06:39.312Z,39.09
2023-02-06T09:07:41.120Z,41.85
2023-02-06T09:08:43.512Z,41.11
2023-02-06T09:09:45.340Z,42.11
2023-02-06T09:10:47.253Z,38.63
2023-02-06T09:11:49.102Z,40.20
2023-02-06T09:12:50.916Z,42.09
2023-02-06T09:13:52.765Z,43.39
2023-02-06T09:14:54.576Z,45.75
2023-02-06T09:15:56.412Z,35.71
2023-02-06T09:16:59.299Z,41.15
2023-02-06T09:18:01.116Z,38.04
2023-02-06T09:19:02.930Z,42.21
2023-02-06T09:20:04.821Z,50.18
2023-02-06T09:21:06.640Z,46.46
2023-02-06T09:22:08.476Z,45.19
2023-02-06T09:23:10.288Z,41.61
2023-02-06T09:24:12.087Z,39.79
2023-02-06T09:25:13.918Z,39.31
2023-02-06T09:26:15.840Z,48.59
2023-02-06T09:27:18.277Z,45.33
2023-02-06T09:28:20.159Z,48.68
2023-02-06T09:29:22.083Z,55.43
2023-02-06T09:30:24.154Z,41.68
2023-02-06T09:31:26.014Z,55.34
2023-02-06T09:32:27.810Z,53.89
2023-02-06T09:33:30.711Z,44.95
2023-02-06T09:34:32.950Z,47.01
2023-02-06T09:35:35.323Z,39.94
2023-02-06T09:36:37.353Z,37.59
2023-02-06T09:37:39.215Z,39.02
2023-02-06T09:38:41.022Z,39.26
2023-02-06T09:39:42.813Z,43.28
2023-02-06T09:40:44.610Z,36.69
2023-02-06T09:41:47.539Z,41.62
2023-02-06T09:42:49.450Z,39.46
2023-02-06T09:43:51.245Z,42.77
2023-02-06T09:44:53.673Z,49.87
2023-02-06T09:45:55.566Z,39.73
2023-02-06T09:46:57.335Z,41.52
2023-02-06T09:47:59.188Z,34.29
2023-02-06T09:49:01.006Z,36.80
2023-02-06T09:50:02.907Z,34.86
2023-02-06T09:51:04.752Z,39.16
2023-02-06T09:52:06.622Z,35.54
2023-02-06T09:53:08.468Z,37.19
2023-02-06T09:54:10.294Z,35.46
2023-02-06T09:55:12.080Z,36.73
2023-02-06T09:56:14.084Z,38.66
2023-02-06T09:57:15.886Z,35.00
2023-02-06T09:58:18.803Z,35.53
2023-02-06T09:59:20.617Z,36.32
2023-02-06T10:00:22.420Z,34.02
2023-02-06T10:01:24.311Z,34.42
2023-02-06T10:02:26.084Z,37.65
2023-02-06T10:03:27.917Z,35.66
2023-02-06T10:04:29.843Z,32.33
2023-02-06T10:05:31.654Z,32.46
2023-02-06T10:06:33.753Z,33.77
2023-02-06T10:07:35.565Z,33.35
2023-02-06T10:08:37.446Z,36.61
2023-02-06T10:09:39.207Z,30.41
2023-02-06T10:10:41.169Z,33.51
2023-02-06T10:11:43.001Z,38.59
2023-02-06T10:12:44.800Z,37.35
2023-02-06T10:13:46.639Z,34.68
2023-02-06T10:14:48.442Z,35.88
2023-02-06T10:15:50.296Z,33.86
2023-02-06T10:16:52.058Z,30.72
2023-02-06T10:17:53.868Z,33.96
2023-02-06T10:18:55.716Z,33.22
2023-02-06T10:19:57.507Z,32.47
2023-02-06T10:20:59.425Z,33.59
2023-02-06T10:22:01.232Z,34.27
2023-02-06T10:23:03.030Z,33.71
2023-02-06T10:24:04.864Z,32.79
2023-02-06T10:25:06.679Z,29.55
2023-02-06T10:26:08.788Z,32.32
2023-02-06T10:27:10.593Z,33.45
2023-02-06T10:28:12.434Z,32.09
2023-02-06T10:29:16.614Z,28.01
2023-02-06T10:30:18.328Z,32.23
2023-02-06T10:31:20.195Z,29.74
2023-02-06T10:32:22.029Z,31.36
2023-02-06T10:33:26.005Z,28.01
2023-02-06T10:34:27.522Z,30.95
2023-02-06T10:35:29.321Z,33.11
2023-02-06T10:36:31.112Z,31.99
2023-02-06T10:37:32.911Z,28.14
2023-02-06T10:38:34.814Z,29.13
2023-02-06T10:39:36.714Z,31.59
2023-02-06T10:40:38.591Z,34.43
2023-02-06T10:41:40.505Z,33.44
2023-02-06T10:42:42.300Z,31.78
2023-02-06T10:43:44.545Z,35.85
2023-02-06T10:44:51.236Z,34.00
2023-02-06T10:45:50.024Z,34.78
2023-02-06T10:46:51.973Z,32.28
2023-02-06T10:47:53.783Z,31.36
2023-02-06T10:48:55.635Z,32.34
2023-02-06T10:49:57.454Z,39.09
2023-02-06T10:50:59.468Z,30.25
2023-02-06T10:52:01.276Z,35.76
2023-02-06T10:53:03.071Z,52.43
2023-02-06T10:54:04.883Z,54.57
2023-02-06T10:55:06.867Z,43.77
2023-02-06T10:56:08.981Z,42.75
2023-02-06T10:57:10.786Z,44.23
2023-02-06T10:58:12.583Z,31.68
2023-02-06T10:59:14.380Z,29.11
2023-02-06T11:00:16.306Z,28.44
2023-02-06T11:01:25.983Z,27.49
2023-02-06T11:02:21.836Z,30.42
2023-02-06T11:03:23.598Z,27.95
2023-02-06T11:04:25.409Z,27.66
2023-02-06T11:05:27.361Z,27.14
2023-02-06T11:06:29.163Z,25.76
2023-02-06T11:07:30.976Z,25.34
2023-02-06T11:08:32.764Z,28.51
2023-02-06T11:09:34.574Z,22.39
2023-02-06T11:10:36.695Z,29.17
2023-02-06T11:11:38.551Z,28.89
2023-02-06T11:12:40.356Z,27.98
2023-02-06T11:13:42.165Z,26.61
2023-02-06T11:14:43.965Z,27.68
2023-02-06T11:15:45.800Z,29.44
2023-02-06T11:16:47.697Z,27.73
2023-02-06T11:17:49.506Z,24.99
2023-02-06T11:18:51.323Z,25.01
2023-02-06T11:19:53.136Z,26.19
2023-02-06T11:20:55.889Z,28.60
2023-02-06T11:21:57.684Z,29.25
2023-02-06T11:22:59.607Z,28.55
2023-02-06T11:24:01.417Z,25.99
2023-02-06T11:25:03.227Z,25.87
2023-02-06T11:26:05.116Z,24.94
2023-02-06T11:27:06.859Z,27.61
2023-02-06T11:28:08.701Z,29.42
2023-02-06T11:29:10.537Z,25.28
2023-02-06T11:30:12.443Z,24.32
2023-02-06T11:31:14.282Z,26.41
2023-02-06T11:32:16.070Z,24.24
2023-02-06T11:33:17.931Z,25.17
2023-02-06T11:34:19.737Z,24.27
2023-02-06T11:35:21.528Z,22.70
2023-02-06T11:36:23.405Z,25.81
2023-02-06T11:37:25.227Z,32.55
2023-02-06T11:38:27.028Z,31.39
2023-02-06T11:39:28.827Z,25.89
2023-02-06T11:40:30.723Z,26.48
2023-02-06T11:41:32.609Z,23.71
2023-02-06T11:42:34.424Z,26.14
2023-02-06T11:43:36.208Z,23.01
2023-02-06T11:44:38.023Z,21.65
2023-02-06T11:45:40.099Z,23.03
2023-02-06T11:46:42.207Z,22.60
2023-02-06T11:47:44.043Z,28.53
2023-02-06T11:48:45.884Z,23.59
2023-02-06T11:49:47.695Z,23.52
2023-02-06T11:50:49.596Z,24.73
2023-02-06T11:51:51.620Z,20.25
2023-02-06T11:52:53.442Z,21.78
2023-02-06T11:53:55.232Z,20.79
2023-02-06T11:54:57.050Z,22.30
2023-02-06T11:55:58.842Z,20.88
2023-02-06T11:57:00.791Z,19.99
2023-02-06T11:58:02.602Z,20.90
2023-02-06T11:59:06.647Z,24.20
2023-02-06T12:00:08.208Z,20.69
2023-02-06T12:01:10.022Z,26.26
2023-02-06T12:02:12.528Z,25.59
2023-02-06T12:03:14.299Z,25.76
2023-02-06T12:04:16.149Z,28.81
2023-02-06T12:05:17.946Z,26.41
2023-02-06T12:06:19.745Z,22.64
2023-02-06T12:07:21.609Z,20.66
2023-02-06T12:08:24.018Z,22.71
2023-02-06T12:09:25.833Z,22.14
2023-02-06T12:10:28.276Z,25.16
2023-02-06T12:11:30.078Z,20.06
2023-02-06T12:12:31.930Z,22.10
2023-02-06T12:13:33.814Z,23.89
2023-02-06T12:14:35.595Z,18.09
2023-02-06T12:15:46.704Z,19.82
2023-02-06T12:16:41.048Z,20.04
2023-02-06T12:17:42.849Z,21.69
2023-02-06T12:18:44.656Z,19.47
2023-02-06T12:19:46.459Z,21.81
2023-02-06T12:20:49.591Z,19.44
2023-02-06T12:21:51.456Z,20.11
2023-02-06T12:22:53.246Z,20.21
2023-02-06T12:23:55.052Z,18.04
2023-02-06T12:24:56.866Z,19.87
2023-02-06T12:25:58.674Z,19.46
2023-02-06T12:27:00.599Z,21.59
2023-02-06T12:28:02.495Z,29.31
2023-02-06T12:29:04.361Z,24.97
2023-02-06T12:30:06.973Z,20.84
2023-02-06T12:31:08.856Z,23.53
2023-02-06T12:32:10.680Z,17.79
2023-02-06T12:33:12.551Z,16.81
2023-02-06T12:34:14.377Z,18.45
2023-02-06T12:35:16.796Z,21.79
2023-02-06T12:36:18.846Z,20.93
2023-02-06T12:37:20.600Z,20.08
2023-02-06T12:38:22.440Z,18.03
2023-02-06T12:39:24.244Z,16.04
2023-02-06T12:40:26.054Z,19.53
2023-02-06T12:41:28.175Z,18.50
2023-02-06T12:42:30.327Z,17.61
2023-02-06T12:43:34.798Z,20.23
2023-02-06T12:44:36.637Z,19.57
2023-02-06T12:45:38.762Z,19.35
2023-02-06T12:46:40.747Z,19.21
2023-02-06T12:47:42.543Z,18.39
2023-02-06T12:48:44.956Z,20.37
2023-02-06T12:49:46.757Z,23.05
2023-02-06T12:50:48.665Z,21.24
2023-02-06T12:51:50.460Z,18.40
2023-02-06T12:52:52.289Z,18.57
2023-02-06T12:53:54.826Z,21.22
2023-02-06T12:54:56.635Z,17.95
2023-02-06T12:56:00.626Z,17.14
2023-02-06T12:57:03.667Z,16.33
2023-02-06T12:58:06.609Z,15.79
2023-02-06T12:59:08.467Z,18.59
2023-02-06T13:00:10.760Z,16.72
2023-02-06T13:01:25.909Z,17.49
2023-02-06T13:02:16.299Z,14.10
2023-02-06T13:03:18.677Z,16.10
2023-02-06T13:04:20.563Z,15.98
2023-02-06T13:05:22.392Z,14.80
2023-02-06T13:06:24.195Z,17.23
2023-02-06T13:07:26.002Z,11.19
2023-02-06T13:08:27.818Z,16.87
2023-02-06T13:09:29.657Z,16.49
2023-02-06T13:10:31.868Z,16.49
2023-02-06T13:11:34.222Z,14.85
2023-02-06T13:12:36.031Z,15.71
2023-02-06T13:13:37.859Z,17.60
2023-02-06T13:14:40.130Z,18.77
2023-02-06T13:15:42.502Z,21.97
2023-02-06T13:16:44.396Z,24.37
2023-02-06T13:17:46.195Z,24.03